createdAt,value
2018-08-20T00:00:27.538Z,22.08
2018-08-20T00:01:07.928Z,22.12
2018-08-20T00:01:48.285Z,22.05
2018-08-20T00:02:28.793Z,22.15
2018-08-20T00:03:09.138Z,22.21
2018-08-20T00:03:49.659Z,22.26
2018-08-20T00:04:29.976Z,22.21
2018-08-20T00:05:10.376Z,22.31
2018-08-20T00:05:50.809Z,22.35
2018-08-20T00:06:31.384Z,22.35
2018-08-20T00:07:11.911Z,22.41
2018-08-20T00:07:52.226Z,22.49
2018-08-20T00:08:32.583Z,22.44
2018-08-20T00:09:13.024Z,22.56
2018-08-20T00:09:53.481Z,22.56
2018-08-20T00:10:33.804Z,22.45
2018-08-20T00:11:14.153Z,22.51
2018-08-20T00:11:54.572Z,22.56
2018-08-20T00:12:35.053Z,22.54
2018-08-20T00:13:15.433Z,22.59
2018-08-20T00:13:55.873Z,22.57
2018-08-20T00:14:36.211Z,22.64
2018-08-20T00:15:16.653Z,22.67
2018-08-20T00:15:57.104Z,22.66
2018-08-20T00:16:37.627Z,22.72
2018-08-20T00:17:17.990Z,22.6
2018-08-20T00:17:58.460Z,22.82
2018-08-20T00:18:38.888Z,22.72
2018-08-20T00:19:19.327Z,22.85
2018-08-20T00:19:59.693Z,22.81
2018-08-20T00:20:40.126Z,22.84
2018-08-20T00:21:20.549Z,22.86
2018-08-20T00:22:00.892Z,22.93
2018-08-20T00:22:41.361Z,22.97
2018-08-20T00:23:21.916Z,22.99
2018-08-20T00:24:02.210Z,22.94
2018-08-20T00:24:42.687Z,22.91
2018-08-20T00:25:23.022Z,22.93
2018-08-20T00:26:03.346Z,23
2018-08-20T00:26:43.900Z,22.89
2018-08-20T00:27:24.332Z,23.07
2018-08-20T00:28:04.669Z,23.04
2018-08-20T00:28:45.029Z,23.09
2018-08-20T00:29:25.430Z,23.03
2018-08-20T00:30:05.817Z,22.96
2018-08-20T00:30:46.467Z,23.07
2018-08-20T00:31:26.660Z,23.06
2018-08-20T00:32:07.026Z,23.03
2018-08-20T00:32:47.462Z,23.11
2018-08-20T00:33:27.900Z,23.01
2018-08-20T00:34:08.216Z,23.07
2018-08-20T00:34:48.810Z,23.06
2018-08-20T00:35:29.134Z,23.11
2018-08-20T00:36:09.568Z,23.16
2018-08-20T00:36:49.864Z,23.16
2018-08-20T00:37:30.348Z,23.19
2018-08-20T00:38:10.780Z,23.21
2018-08-20T00:38:51.197Z,23.26
2018-08-20T00:39:31.795Z,23.23
2018-08-20T00:40:12.105Z,23.18
2018-08-20T00:40:52.655Z,23.12
2018-08-20T00:41:33.017Z,23.19
2018-08-20T00:42:13.386Z,23.12
2018-08-20T00:42:53.818Z,23.11
2018-08-20T00:43:34.267Z,23.11
2018-08-20T00:44:14.803Z,23.14
2018-08-20T00:44:55.136Z,23.23
2018-08-20T00:45:35.661Z,23.15
2018-08-20T00:46:16.037Z,23.16
2018-08-20T00:46:56.551Z,23.19
2018-08-20T00:47:36.914Z,23.15
2018-08-20T00:48:17.330Z,23.15
2018-08-20T00:48:57.757Z,23.16
2018-08-20T00:49:38.119Z,23.16
2018-08-20T00:50:18.521Z,23.16
2018-08-20T00:50:58.891Z,23.26
2018-08-20T00:51:39.383Z,23.18
2018-08-20T00:52:19.786Z,23.14
2018-08-20T00:53:00.200Z,23.19
2018-08-20T00:53:40.675Z,23.21
2018-08-20T00:54:21.002Z,23.21
2018-08-20T00:55:01.387Z,23.16
2018-08-20T00:55:41.890Z,23.18
2018-08-20T00:56:22.320Z,23.19
2018-08-20T00:57:02.685Z,23.23
2018-08-20T00:57:43.135Z,23.22
2018-08-20T00:58:23.687Z,23.15
2018-08-20T00:59:04.040Z,23.15
2018-08-20T00:59:44.323Z,23.16
2018-08-20T01:00:24.832Z,23.19
2018-08-20T01:01:05.222Z,23.21
2018-08-20T01:01:45.659Z,23.12
2018-08-20T01:02:26.064Z,23.12
2018-08-20T01:03:06.678Z,23.09
2018-08-20T01:03:46.873Z,23.16
2018-08-20T01:04:27.216Z,23.22
2018-08-20T01:06:41.517Z,23.19
2018-08-20T01:07:20.379Z,23.15
2018-08-20T01:08:00.868Z,23.18
2018-08-20T01:08:41.229Z,23.18
2018-08-20T01:09:21.713Z,23.12
2018-08-20T01:10:02.474Z,23.19
2018-08-20T01:10:42.652Z,23.14
2018-08-20T01:11:22.998Z,23.15
2018-08-20T01:12:03.429Z,23.18
2018-08-20T01:12:43.818Z,23.07
2018-08-20T01:13:24.456Z,23.03
2018-08-20T01:14:04.742Z,23.09
2018-08-20T01:14:45.084Z,23.11
2018-08-20T01:15:25.493Z,23.06
2018-08-20T01:16:05.977Z,23.14
2018-08-20T01:16:46.466Z,23.07
2018-08-20T01:17:26.800Z,23.07
2018-08-20T01:18:07.279Z,23.06
2018-08-20T01:18:47.671Z,23.09
2018-08-20T01:19:28.040Z,23.01
2018-08-20T01:20:08.570Z,23.07
2018-08-20T01:20:48.821Z,22.96
2018-08-20T01:21:29.209Z,22.97
2018-08-20T01:22:09.639Z,22.86
2018-08-20T01:22:50.132Z,22.88
2018-08-20T01:23:30.674Z,22.81
2018-08-20T01:24:11.061Z,22.82
2018-08-20T01:24:51.497Z,22.76
2018-08-20T01:25:31.797Z,22.81
2018-08-20T01:26:12.263Z,22.79
2018-08-20T01:26:52.743Z,22.61
2018-08-20T01:27:33.156Z,22.61
2018-08-20T01:28:13.578Z,22.72
2018-08-20T01:28:53.994Z,22.67
2018-08-20T01:29:34.537Z,22.63
2018-08-20T01:30:14.717Z,22.64
2018-08-20T01:30:55.174Z,22.67
2018-08-20T01:31:35.681Z,22.6
2018-08-20T01:32:16.045Z,22.64
2018-08-20T01:32:56.432Z,22.6
2018-08-20T01:33:36.889Z,22.64
2018-08-20T01:34:17.359Z,22.66
2018-08-20T01:34:57.742Z,22.72
2018-08-20T01:35:38.267Z,22.72
2018-08-20T01:36:18.590Z,22.76
2018-08-20T01:36:58.948Z,22.67
2018-08-20T01:37:39.478Z,22.74
2018-08-20T01:38:19.901Z,22.74
2018-08-20T01:39:00.217Z,22.74
2018-08-20T01:39:40.790Z,22.76
2018-08-20T01:40:21.083Z,22.7
2018-08-20T01:41:01.564Z,22.84
2018-08-20T01:41:41.857Z,22.84
2018-08-20T01:42:22.437Z,22.76
2018-08-20T01:43:02.879Z,22.75
2018-08-20T01:43:43.131Z,22.72
2018-08-20T01:44:23.527Z,22.78
2018-08-20T01:45:03.919Z,22.82
2018-08-20T01:45:44.305Z,22.79
2018-08-20T01:46:24.741Z,22.79
2018-08-20T01:47:05.249Z,22.81
2018-08-20T01:47:45.627Z,22.79
2018-08-20T01:48:26.004Z,22.82
2018-08-20T01:49:06.388Z,22.75
2018-08-20T01:49:46.902Z,22.75
2018-08-20T01:50:27.308Z,22.75
2018-08-20T01:51:07.646Z,22.89
2018-08-20T01:51:48.162Z,22.93
2018-08-20T01:52:28.539Z,22.91
2018-08-20T01:53:08.974Z,22.91
2018-08-20T01:53:49.439Z,22.81
2018-08-20T01:54:29.820Z,22.88
2018-08-20T01:55:10.227Z,22.94
2018-08-20T01:55:50.668Z,22.81
2018-08-20T01:56:31.105Z,22.91
2018-08-20T01:57:11.591Z,22.88
2018-08-20T01:57:51.957Z,22.93
2018-08-20T01:58:32.452Z,22.85
2018-08-20T01:59:12.808Z,22.79
2018-08-20T01:59:53.117Z,22.85
2018-08-20T02:00:33.610Z,22.72
2018-08-20T02:01:13.946Z,22.76
2018-08-20T02:01:54.444Z,22.86
2018-08-20T02:02:34.837Z,22.89
2018-08-20T02:03:15.207Z,22.89
2018-08-20T02:03:55.571Z,22.84
2018-08-20T02:04:36.051Z,22.84
2018-08-20T02:05:16.491Z,22.79
2018-08-20T02:05:57.015Z,22.88
2018-08-20T02:06:37.468Z,22.86
2018-08-20T02:07:17.836Z,22.88
2018-08-20T02:07:58.239Z,22.93
2018-08-20T02:08:38.690Z,22.89
2018-08-20T02:09:19.009Z,22.76
2018-08-20T02:09:59.495Z,22.84
2018-08-20T02:10:39.955Z,22.84
2018-08-20T02:11:20.356Z,22.85
2018-08-20T02:12:00.698Z,22.93
2018-08-20T02:12:41.182Z,22.82
2018-08-20T02:13:21.607Z,22.91
2018-08-20T02:14:02.130Z,22.97
2018-08-20T02:14:42.525Z,22.94
2018-08-20T02:15:22.854Z,22.96
2018-08-20T02:16:03.392Z,22.89
2018-08-20T02:16:43.695Z,22.94
2018-08-20T02:17:24.261Z,22.94
2018-08-20T02:18:04.493Z,22.93
2018-08-20T02:18:45.020Z,22.91
2018-08-20T02:19:25.489Z,22.97
2018-08-20T02:20:05.951Z,22.94
2018-08-20T02:20:46.362Z,22.96
2018-08-20T02:21:26.703Z,22.99
2018-08-20T02:22:07.200Z,22.97
2018-08-20T02:22:47.605Z,22.99
2018-08-20T02:23:27.980Z,23.06
2018-08-20T02:24:08.466Z,22.99
2018-08-20T02:24:48.793Z,22.93
2018-08-20T02:25:29.167Z,23.07
2018-08-20T02:26:09.661Z,23.04
2018-08-20T02:26:50.026Z,23.09
2018-08-20T02:27:30.378Z,23.07
2018-08-20T02:28:10.942Z,23.03
2018-08-20T02:28:51.333Z,23.06
2018-08-20T02:29:31.684Z,23.03
2018-08-20T02:30:12.176Z,23.03
2018-08-20T02:30:52.471Z,23.12
2018-08-20T02:31:32.898Z,23.04
2018-08-20T02:32:13.338Z,23.06
2018-08-20T02:32:53.842Z,23
2018-08-20T02:33:34.308Z,22.99
2018-08-20T02:34:14.631Z,23.03
2018-08-20T02:34:54.973Z,23.03
2018-08-20T02:35:35.426Z,23.07
2018-08-20T02:36:15.750Z,23.04
2018-08-20T02:36:56.235Z,23.09
2018-08-20T02:37:36.932Z,22.96
2018-08-20T02:38:17.817Z,22.96
2018-08-20T02:38:58.281Z,22.93
2018-08-20T02:39:38.645Z,22.94
2018-08-20T02:40:19.006Z,22.96
2018-08-20T02:40:59.430Z,22.96
2018-08-20T02:41:39.861Z,22.93
2018-08-20T02:42:20.366Z,22.96
2018-08-20T02:43:00.824Z,22.96
2018-08-20T02:43:41.419Z,22.89
2018-08-20T02:44:21.774Z,22.93
2018-08-20T02:45:02.189Z,22.93
2018-08-20T02:45:42.719Z,22.96
2018-08-20T02:46:23.584Z,22.93
2018-08-20T02:47:04.026Z,22.91
2018-08-20T02:47:45.103Z,22.89
2018-08-20T02:48:25.096Z,22.93
2018-08-20T02:49:05.725Z,22.97
2018-08-20T02:49:46.201Z,22.96
2018-08-20T02:50:26.572Z,22.94
2018-08-20T02:51:06.985Z,22.89
2018-08-20T02:51:47.506Z,22.85
2018-08-20T02:52:27.902Z,22.93
2018-08-20T02:53:08.664Z,22.85
2018-08-20T02:53:49.054Z,22.88
2018-08-20T02:54:29.667Z,22.99
2018-08-20T02:55:09.993Z,22.94
2018-08-20T02:55:50.335Z,22.97
2018-08-20T02:56:30.886Z,22.91
2018-08-20T02:57:11.200Z,22.97
2018-08-20T02:57:51.642Z,22.97
2018-08-20T02:58:32.087Z,22.91
2018-08-20T02:59:12.594Z,22.89
2018-08-20T02:59:52.979Z,22.94
2018-08-20T03:00:33.408Z,22.94
2018-08-20T03:01:13.852Z,22.96
2018-08-20T03:01:54.221Z,22.91
2018-08-20T03:02:34.788Z,22.93
2018-08-20T03:03:15.294Z,22.88
2018-08-20T03:03:55.602Z,22.93
2018-08-20T03:04:37.409Z,22.82
2018-08-20T03:05:17.829Z,22.94
2018-08-20T03:05:59.374Z,22.91
2018-08-20T03:06:39.075Z,22.86
2018-08-20T03:07:19.364Z,22.96
2018-08-20T03:07:59.925Z,23
2018-08-20T03:08:40.171Z,22.89
2018-08-20T03:09:20.557Z,22.99
2018-08-20T03:10:01.035Z,22.93
2018-08-20T03:10:41.471Z,22.91
2018-08-20T03:11:21.893Z,22.91
2018-08-20T03:12:02.322Z,22.88
2018-08-20T03:12:42.836Z,22.93
2018-08-20T03:13:23.332Z,22.93
2018-08-20T03:14:06.455Z,23
2018-08-20T03:14:46.908Z,22.97
2018-08-20T03:15:27.410Z,22.86
2018-08-20T03:16:07.969Z,22.79
2018-08-20T03:16:49.006Z,22.82
2018-08-20T03:17:29.686Z,22.86
2018-08-20T03:18:13.509Z,22.74
2018-08-20T03:18:54.032Z,22.69
2018-08-20T03:19:34.456Z,22.74
2018-08-20T03:20:16.591Z,22.64
2018-08-20T03:20:57.367Z,22.72
2018-08-20T03:21:39.066Z,22.75
2018-08-20T03:22:19.387Z,22.78
2018-08-20T03:22:59.806Z,22.81
2018-08-20T03:23:40.781Z,22.72
2018-08-20T03:24:21.205Z,22.72
2018-08-20T03:25:04.054Z,22.72
2018-08-20T03:25:44.531Z,22.66
2018-08-20T03:26:25.011Z,22.74
2018-08-20T03:27:05.503Z,22.69
2018-08-20T03:27:45.871Z,22.66
2018-08-20T03:28:26.363Z,22.72
2018-08-20T03:29:06.704Z,22.63
2018-08-20T03:29:47.697Z,22.74
2018-08-20T03:30:28.534Z,22.66
2018-08-20T03:31:08.858Z,22.61
2018-08-20T03:31:49.350Z,22.74
2018-08-20T03:32:29.877Z,22.66
2018-08-20T03:33:10.263Z,22.7
2018-08-20T03:33:50.693Z,22.7
2018-08-20T03:34:31.402Z,22.67
2018-08-20T03:35:11.795Z,22.75
2018-08-20T03:35:52.378Z,22.69
2018-08-20T03:36:32.868Z,22.67
2018-08-20T03:37:13.637Z,22.64
2018-08-20T03:37:53.916Z,22.61
2018-08-20T03:38:34.380Z,22.69
2018-08-20T03:39:14.892Z,22.74
2018-08-20T03:39:55.252Z,22.7
2018-08-20T03:40:35.672Z,22.72
2018-08-20T03:41:16.177Z,22.72
2018-08-20T03:41:56.495Z,22.69
2018-08-20T03:42:37.248Z,22.66
2018-08-20T03:43:17.831Z,22.7
2018-08-20T03:43:58.261Z,22.76
2018-08-20T03:44:38.727Z,22.78
2018-08-20T03:45:19.139Z,22.69
2018-08-20T03:45:59.512Z,22.76
2018-08-20T03:46:39.955Z,22.72
2018-08-20T03:47:20.354Z,22.74
2018-08-20T03:48:01.204Z,22.75
2018-08-20T03:48:41.445Z,22.79
2018-08-20T03:49:22.275Z,22.79
2018-08-20T03:50:02.697Z,22.72
2018-08-20T03:50:43.214Z,22.76
2018-08-20T03:51:23.439Z,22.67
2018-08-20T03:52:03.857Z,22.72
2018-08-20T03:52:44.317Z,22.72
2018-08-20T03:53:24.659Z,22.69
2018-08-20T03:54:05.079Z,22.75
2018-08-20T03:54:45.489Z,22.76
2018-08-20T03:55:25.923Z,22.78
2018-08-20T03:56:06.359Z,22.67
2018-08-20T03:56:46.809Z,22.78
2018-08-20T03:57:27.133Z,22.75
2018-08-20T03:58:07.522Z,22.74
2018-08-20T03:58:47.935Z,22.67
2018-08-20T03:59:28.330Z,22.75
2018-08-20T04:00:08.746Z,22.74
2018-08-20T04:00:49.162Z,22.7
2018-08-20T04:01:29.602Z,22.67
2018-08-20T04:02:10.011Z,22.74
2018-08-20T04:02:50.362Z,22.59
2018-08-20T04:03:30.777Z,22.78
2018-08-20T04:04:11.177Z,22.82
2018-08-20T04:04:51.683Z,22.75
2018-08-20T04:05:32.099Z,22.66
2018-08-20T04:06:12.516Z,22.79
2018-08-20T04:06:52.846Z,22.76
2018-08-20T04:07:33.304Z,22.74
2018-08-20T04:08:13.764Z,22.84
2018-08-20T04:08:54.299Z,22.78
2018-08-20T04:09:34.593Z,22.78
2018-08-20T04:10:15.009Z,22.72
2018-08-20T04:10:55.445Z,22.75
2018-08-20T04:11:35.792Z,22.78
2018-08-20T04:12:16.273Z,22.85
2018-08-20T04:12:57.438Z,22.78
2018-08-20T04:13:37.843Z,22.84
2018-08-20T04:14:18.289Z,22.75
2018-08-20T04:14:58.692Z,22.74
2018-08-20T04:15:39.110Z,22.81
2018-08-20T04:16:19.496Z,22.78
2018-08-20T04:16:59.964Z,22.81
2018-08-20T04:17:40.264Z,22.81
2018-08-20T04:18:20.646Z,22.72
2018-08-20T04:19:01.023Z,22.78
2018-08-20T04:19:41.464Z,22.76
2018-08-20T04:20:21.955Z,22.79
2018-08-20T04:21:02.340Z,22.75
2018-08-20T04:21:42.757Z,22.72
2018-08-20T04:22:23.157Z,22.75
2018-08-20T04:23:03.586Z,22.75
2018-08-20T04:23:43.977Z,22.66
2018-08-20T04:24:24.464Z,22.69
2018-08-20T04:25:04.837Z,22.66
2018-08-20T04:25:45.239Z,22.69
2018-08-20T04:26:25.674Z,22.66
2018-08-20T04:27:06.077Z,22.57
2018-08-20T04:27:46.552Z,22.64
2018-08-20T04:28:26.895Z,22.64
2018-08-20T05:06:08.436Z,21.15
2018-08-20T05:06:48.760Z,21.16
2018-08-20T05:07:29.228Z,21.13
2018-08-20T05:08:09.572Z,21.16
2018-08-20T05:08:49.961Z,21.03
2018-08-20T05:09:30.400Z,21.13
2018-08-20T05:10:10.825Z,21.13
2018-08-20T05:10:51.300Z,21.13
2018-08-20T05:11:31.711Z,21.05
2018-08-20T05:12:12.170Z,21.16
2018-08-20T05:12:52.500Z,21.26
2018-08-20T05:13:32.864Z,21.19
2018-08-20T05:14:13.224Z,21.15
2018-08-20T05:14:53.634Z,21.19
2018-08-20T05:15:34.045Z,21.15
2018-08-20T05:16:14.485Z,21.16
2018-08-20T05:16:54.839Z,21.19
2018-08-20T05:17:35.261Z,21.28
2018-08-20T05:18:15.672Z,21.22
2018-08-20T05:18:56.160Z,21.24
2018-08-20T05:19:36.475Z,21.36
2018-08-20T05:20:16.884Z,21.31
2018-08-20T05:20:57.281Z,21.3
2018-08-20T05:21:37.665Z,21.43
2018-08-20T05:22:18.108Z,21.42
2018-08-20T05:22:58.490Z,21.48
2018-08-20T05:24:35.677Z,21.61
2018-08-20T05:25:16.052Z,21.7
2018-08-20T05:25:56.510Z,21.75
2018-08-20T05:26:36.869Z,21.68
2018-08-20T05:27:17.292Z,21.82
2018-08-20T05:27:57.736Z,21.89
2018-08-20T05:28:38.167Z,21.89
2018-08-20T05:29:18.608Z,21.99
2018-08-20T05:29:59.019Z,21.98
2018-08-20T05:30:39.467Z,21.93
2018-08-20T05:31:19.859Z,22.05
2018-08-20T05:32:00.332Z,22.14
2018-08-20T05:32:40.747Z,22.11
2018-08-20T05:33:21.101Z,22.08
2018-08-20T05:34:01.501Z,22.17
2018-08-20T05:34:41.927Z,22.19
2018-08-20T05:35:22.358Z,22.36
2018-08-20T05:36:02.753Z,22.36
2018-08-20T05:36:43.192Z,22.35
2018-08-20T05:37:23.577Z,22.36
2018-08-20T05:38:04.035Z,22.36
2018-08-20T05:38:44.413Z,22.41
2018-08-20T05:39:24.879Z,22.44
2018-08-20T05:40:05.285Z,22.41
2018-08-20T05:40:45.689Z,22.39
2018-08-20T05:41:26.088Z,22.45
2018-08-20T05:42:06.505Z,22.51
2018-08-20T05:42:46.927Z,22.54
2018-08-20T05:43:27.371Z,22.46
2018-08-20T05:44:08.111Z,22.48
2018-08-20T05:44:48.575Z,22.52
2018-08-20T05:45:28.941Z,22.56
2018-08-20T05:46:10.205Z,22.57
2018-08-20T05:46:51.127Z,22.51
2018-08-20T05:47:32.705Z,22.59
2018-08-20T05:48:13.185Z,22.57
2018-08-20T05:48:53.228Z,22.67
2018-08-20T05:49:33.684Z,22.64
2018-08-20T05:50:14.088Z,22.67
2018-08-20T05:50:54.472Z,22.59
2018-08-20T05:51:34.992Z,22.6
2018-08-20T05:52:15.426Z,22.66
2018-08-20T05:52:55.923Z,22.63
2018-08-20T05:53:36.288Z,22.67
2018-08-20T05:54:16.720Z,22.61
2018-08-20T05:54:57.096Z,22.79
2018-08-20T05:55:37.505Z,22.78
2018-08-20T05:56:17.983Z,22.79
2018-08-20T05:56:58.396Z,22.75
2018-08-20T05:57:38.871Z,22.85
2018-08-20T05:58:20.290Z,22.88
2018-08-20T05:59:00.657Z,22.88
2018-08-20T05:59:41.095Z,22.81
2018-08-20T06:00:21.481Z,22.93
2018-08-20T06:01:01.877Z,22.84
2018-08-20T06:01:42.254Z,22.84
2018-08-20T06:02:22.665Z,22.85
2018-08-20T06:03:03.028Z,22.94
2018-08-20T06:03:43.413Z,22.93
2018-08-20T06:04:23.843Z,22.89
2018-08-20T06:05:04.236Z,22.81
2018-08-20T06:05:44.623Z,22.89
2018-08-20T06:06:25.043Z,22.81
2018-08-20T06:07:05.576Z,22.94
2018-08-20T06:07:46.583Z,22.86
2018-08-20T06:08:26.818Z,22.86
2018-08-20T06:09:07.353Z,22.89
2018-08-20T06:09:48.117Z,22.99
2018-08-20T06:10:28.747Z,22.86
2018-08-20T06:11:09.463Z,22.84
2018-08-20T06:11:50.502Z,22.93
2018-08-20T06:12:31.272Z,22.96
2018-08-20T06:13:12.080Z,22.99
2018-08-20T06:13:53.154Z,22.99
2018-08-20T06:14:33.641Z,22.96
2018-08-20T06:15:14.179Z,22.94
2018-08-20T06:15:54.651Z,23
2018-08-20T06:16:35.517Z,23.01
2018-08-20T06:17:16.557Z,23.03
2018-08-20T06:17:56.610Z,23
2018-08-20T06:18:37.393Z,23.03
2018-08-20T06:19:18.603Z,23.03
2018-08-20T06:19:59.549Z,23.03
2018-08-20T06:20:39.711Z,23.11
2018-08-20T06:21:20.534Z,23.12
2018-08-20T06:22:02.227Z,22.99
2018-08-20T06:22:43.145Z,22.94
2018-08-20T06:23:23.265Z,22.97
2018-08-20T06:24:03.847Z,22.91
2018-08-20T06:24:45.048Z,23.07
2018-08-20T06:25:26.056Z,23.14
2018-08-20T06:26:06.065Z,23.01
2018-08-20T06:26:46.571Z,22.97
2018-08-20T06:27:28.062Z,23.04
2018-08-20T06:28:08.131Z,23.09
2018-08-20T06:28:48.753Z,23.04
2018-08-20T06:29:30.280Z,23.06
2018-08-20T06:30:10.230Z,23
2018-08-20T06:30:50.880Z,23.04
2018-08-20T06:31:31.765Z,23.07
2018-08-20T06:32:12.010Z,23.04
2018-08-20T06:32:53.044Z,23.09
2018-08-20T06:33:33.811Z,23.07
2018-08-20T06:34:14.582Z,23.16
2018-08-20T06:34:55.289Z,23.12
2018-08-20T06:35:36.564Z,23.09
2018-08-20T06:36:17.065Z,23.21
2018-08-20T06:36:58.210Z,23.29
2018-08-20T06:37:38.141Z,23.21
2018-08-20T06:38:18.975Z,23.16
2018-08-20T06:38:59.863Z,23.18
2018-08-20T06:39:41.266Z,23.29
2018-08-20T06:40:21.098Z,23.23
2018-08-20T06:41:01.819Z,23.23
2018-08-20T06:41:43.382Z,23.32
2018-08-20T06:42:23.303Z,23.29
2018-08-20T06:43:03.802Z,23.32
2018-08-20T06:44:57.293Z,23.35
2018-08-20T06:45:38.308Z,23.39
2018-08-20T06:46:19.330Z,23.31
2018-08-20T06:47:00.460Z,23.39
2018-08-20T06:47:40.403Z,23.47
2018-08-20T06:48:20.972Z,23.44
2018-08-20T06:49:02.918Z,23.41
2018-08-20T06:49:43.255Z,23.44
2018-08-20T06:50:24.906Z,23.35
2018-08-20T06:51:04.819Z,23.37
2018-08-20T06:51:46.320Z,23.34
2018-08-20T06:52:26.587Z,23.49
2018-08-20T06:53:08.314Z,23.37
2018-08-20T06:53:49.317Z,23.41
2018-08-20T06:54:29.352Z,23.42
2018-08-20T06:55:10.264Z,23.41
2018-08-20T06:55:51.036Z,23.42
2018-08-20T06:56:31.438Z,23.31
2018-08-20T06:57:12.561Z,23.49
2018-08-20T06:57:54.071Z,23.56
2018-08-20T06:58:34.235Z,23.5
2018-08-20T06:59:14.821Z,23.59
2018-08-20T06:59:56.312Z,23.56
2018-08-20T07:00:37.322Z,23.69
2018-08-20T07:01:18.316Z,23.64
2018-08-20T07:01:58.657Z,23.67
2018-08-20T07:02:39.085Z,23.63
2018-08-20T07:03:20.833Z,23.67
2018-08-20T07:04:01.180Z,23.72
2018-08-20T07:04:42.159Z,23.74
2018-08-20T07:05:23.449Z,23.72
2018-08-20T07:06:04.819Z,23.78
2018-08-20T07:06:45.117Z,23.75
2018-08-20T07:07:25.660Z,23.81
2018-08-20T07:08:06.108Z,23.77
2018-08-20T07:08:46.616Z,23.64
2018-08-20T07:09:27.413Z,23.69
2018-08-20T07:10:08.848Z,23.62
2018-08-20T07:10:49.815Z,23.68
2018-08-20T07:11:30.208Z,23.74
2018-08-20T07:12:10.832Z,23.6
2018-08-20T07:12:51.722Z,23.6
2018-08-20T07:13:32.736Z,23.68
2018-08-20T07:14:13.360Z,23.78
2018-08-20T07:14:54.821Z,23.71
2018-08-20T07:15:34.912Z,23.72
2018-08-20T07:16:15.783Z,23.64
2018-08-20T07:16:56.882Z,23.67
2018-08-20T07:17:36.905Z,23.69
2018-08-20T07:18:18.331Z,23.63
2018-08-20T07:18:59.328Z,23.78
2018-08-20T07:19:39.176Z,23.75
2018-08-20T07:20:20.710Z,23.75
2018-08-20T07:22:24.532Z,23.67
2018-08-20T07:23:27.188Z,23.63
2018-08-20T07:24:22.387Z,23.63
2018-08-20T07:25:15.529Z,23.69
2018-08-20T07:26:14.160Z,23.56
2018-08-20T07:27:01.899Z,23.63
2018-08-20T07:27:57.256Z,23.56
2018-08-20T07:28:38.321Z,23.68
2018-08-20T07:29:19.969Z,23.72
2018-08-20T07:30:00.329Z,23.69
2018-08-20T07:30:41.964Z,23.75
2018-08-20T07:31:22.064Z,23.78
2018-08-20T07:32:03.183Z,23.81
2018-08-20T07:32:45.101Z,23.78
2018-08-20T07:33:25.658Z,23.79
2018-08-20T07:34:06.981Z,23.79
2018-08-20T07:34:47.854Z,23.81
2018-08-20T07:35:28.053Z,23.87
2018-08-20T07:36:09.384Z,23.84
2018-08-20T07:36:49.621Z,23.86
2018-08-20T07:37:30.876Z,23.87
2018-08-20T07:38:11.577Z,23.84
2018-08-20T07:38:51.736Z,23.87
2018-08-20T07:39:32.590Z,23.96
2018-08-20T07:40:12.974Z,23.86
2018-08-20T07:40:53.728Z,23.92
2018-08-20T07:41:34.559Z,23.94
2018-08-20T07:42:15.323Z,23.96
2018-08-20T07:42:56.339Z,23.89
2018-08-20T07:43:37.119Z,23.87
2018-08-20T07:44:18.396Z,23.9
2018-08-20T07:44:58.738Z,23.86
2018-08-20T07:45:39.964Z,23.72
2018-08-20T07:46:20.603Z,23.68
2018-08-20T07:47:02.434Z,23.63
2018-08-20T07:47:42.760Z,23.67
2018-08-20T07:48:23.456Z,23.68
2018-08-20T07:49:04.185Z,23.69
2018-08-20T07:49:45.134Z,23.64
2018-08-20T07:50:26.445Z,23.67
2018-08-20T07:51:06.718Z,23.68
2018-08-20T07:51:48.821Z,23.67
2018-08-20T07:52:36.057Z,23.75
2018-08-20T07:53:23.700Z,23.67
2018-08-20T07:54:19.384Z,23.68
2018-08-20T07:55:00.022Z,23.72
2018-08-20T07:55:55.983Z,23.71
2018-08-20T07:58:46.824Z,23.74
2018-08-20T07:59:24.745Z,23.77
2018-08-20T08:00:06.183Z,23.81
2018-08-20T08:01:34.419Z,23.75
2018-08-20T08:02:15.361Z,23.68
2018-08-20T08:02:55.689Z,23.64
2018-08-20T08:03:37.908Z,23.75
2018-08-20T08:04:18.749Z,23.72
2018-08-20T08:04:59.953Z,23.78
2018-08-20T08:05:41.549Z,23.81
2018-08-20T08:06:21.498Z,23.87
2018-08-20T08:07:03.180Z,23.84
2018-08-20T08:08:56.875Z,23.81
2018-08-20T08:10:58.686Z,23.82
2018-08-20T08:12:54.144Z,23.89
2018-08-20T08:14:49.884Z,23.84
2018-08-20T08:17:01.931Z,23.78
2018-08-20T08:19:30.113Z,23.86
2018-08-20T08:20:11.683Z,23.84
2018-08-20T08:20:51.923Z,23.86
2018-08-20T08:21:32.352Z,23.86
2018-08-20T08:22:12.833Z,23.86
2018-08-20T08:22:53.233Z,23.99
2018-08-20T08:23:33.834Z,23.99
2018-08-20T08:24:14.808Z,24.06
2018-08-20T08:24:56.323Z,24.05
2018-08-20T08:25:36.807Z,24.05
2018-08-20T08:26:17.225Z,24.05
2018-08-20T08:26:57.785Z,24.04
2018-08-20T08:27:38.240Z,24.12
2018-08-20T08:28:18.644Z,24.12
2018-08-20T08:28:59.094Z,24.16
2018-08-20T08:29:39.545Z,24.24
2018-08-20T08:30:19.958Z,24.21
2018-08-20T08:31:00.395Z,24.26
2018-08-20T08:31:40.845Z,24.24
2018-08-20T08:32:21.318Z,24.3
2018-08-20T08:33:02.014Z,24.36
2018-08-20T08:33:42.244Z,24.3
2018-08-20T08:34:22.671Z,24.3
2018-08-20T08:35:03.215Z,24.3
2018-08-20T08:35:43.554Z,24.26
2018-08-20T08:36:24.762Z,24.42
2018-08-20T08:37:05.428Z,24.36
2018-08-20T08:37:45.634Z,24.48
2018-08-20T08:38:26.169Z,24.59
2018-08-20T08:39:06.546Z,24.56
2018-08-20T08:39:46.964Z,24.59
2018-08-20T08:40:27.465Z,24.61
2018-08-20T08:41:07.928Z,24.71
2018-08-20T08:41:48.443Z,24.87
2018-08-20T08:42:28.886Z,24.84
2018-08-20T08:43:09.297Z,24.86
2018-08-20T08:43:49.920Z,24.89
2018-08-20T08:44:30.379Z,24.98
2018-08-20T08:45:10.815Z,24.97
2018-08-20T08:45:51.289Z,24.92
2018-08-20T08:46:31.728Z,24.92
2018-08-20T08:47:12.255Z,25.09
2018-08-20T08:47:52.751Z,25.09
2018-08-20T08:48:33.228Z,25.09
2018-08-20T08:49:13.836Z,25.05
2018-08-20T08:49:54.348Z,25.07
2018-08-20T08:50:34.754Z,25.2
2018-08-20T08:51:15.303Z,25.2
2018-08-20T08:51:55.722Z,25.05
2018-08-20T08:52:36.304Z,24.99
2018-08-20T08:53:16.923Z,25.01
2018-08-20T08:53:57.519Z,24.89
2018-08-20T08:54:37.994Z,24.92
2018-08-20T08:55:18.946Z,24.92
2018-08-20T08:55:59.379Z,24.94
2018-08-20T08:56:39.972Z,24.97
2018-08-20T08:57:20.511Z,24.93
2018-08-20T08:58:01.030Z,25.04
2018-08-20T08:58:41.571Z,25.01
2018-08-20T08:59:21.908Z,24.99
2018-08-20T09:00:02.451Z,25.07
2018-08-20T09:00:43.048Z,25.01
2018-08-20T09:01:23.495Z,24.97
2018-08-20T09:02:04.035Z,25.01
2018-08-20T09:02:44.811Z,24.84
2018-08-20T09:03:25.077Z,24.86
2018-08-20T09:04:05.693Z,24.9
2018-08-20T09:04:46.179Z,24.86
2018-08-20T09:05:26.733Z,24.89
2018-08-20T09:06:08.287Z,24.84
2018-08-20T09:06:48.052Z,24.82
2018-08-20T09:07:28.669Z,24.82
2018-08-20T09:08:09.528Z,24.8
2018-08-20T09:08:50.021Z,24.75
2018-08-20T09:09:30.491Z,24.68
2018-08-20T09:10:12.318Z,24.68
2018-08-20T09:10:52.837Z,24.66
2018-08-20T09:11:34.292Z,24.6
2018-08-20T09:12:14.966Z,24.55
2018-08-20T09:12:54.797Z,24.56
2018-08-20T09:13:36.811Z,24.52
2018-08-20T09:14:18.125Z,24.46
2018-08-20T09:14:57.429Z,24.46
2018-08-20T09:15:37.973Z,24.46
2018-08-20T09:16:20.311Z,24.52
2018-08-20T09:17:01.210Z,24.52
2018-08-20T09:17:42.926Z,24.46
2018-08-20T09:18:24.180Z,24.49
2018-08-20T09:19:04.972Z,24.45
2018-08-20T09:19:46.294Z,24.56
2018-08-20T09:20:26.370Z,24.61
2018-08-20T09:21:07.074Z,24.51
2018-08-20T09:21:47.774Z,24.67
2018-08-20T09:22:28.273Z,24.64
2018-08-20T09:23:09.577Z,24.56
2018-08-20T09:23:49.455Z,24.68
2018-08-20T09:24:30.939Z,24.64
2018-08-20T09:25:10.579Z,24.7
2018-08-20T09:25:51.210Z,24.66
2018-08-20T09:26:32.050Z,24.68
2018-08-20T09:27:12.465Z,24.64
2018-08-20T09:27:52.929Z,24.63
2018-08-20T09:28:33.711Z,24.61
2018-08-20T09:29:14.399Z,24.7
2018-08-20T09:29:54.824Z,24.59
2018-08-20T09:30:35.271Z,24.59
2018-08-20T09:31:16.072Z,24.63
2018-08-20T09:31:56.582Z,24.7
2018-08-20T09:32:37.065Z,24.7
2018-08-20T09:33:17.581Z,24.68
2018-08-20T09:33:58.784Z,24.7
2018-08-20T09:34:38.604Z,24.66
2018-08-20T09:35:19.061Z,24.7
2018-08-20T09:35:59.501Z,24.71
2018-08-20T09:36:40.138Z,24.77
2018-08-20T09:37:21.354Z,24.8
2018-08-20T09:38:01.263Z,24.75
2018-08-20T09:38:42.020Z,24.79
2018-08-20T09:39:22.601Z,24.86